Terminal Aerodrome Forecast
Issued by NWS Charleston, WV

Current Version | Previous Version | Graphics & Text | Print | Product List | Glossary On
Versions: 1 2 3 4 5 6 7 8 9 10 11 12 13 14 15 16 17 18 19 20 21 22 23 24 25 26 27 28
000
FTUS41 KRLX 261400 AAA
TAFPKB
TAF AMD
KPKB 261434Z 2615/2712 21008KT P6SM -SHRA OVC035
     FM261700 28009G15KT 6SM -SHRA VCTS OVC025CB
     FM261900 30009G15KT 3SM -SHRA OVC015
     FM262300 32007KT 6SM BR OVC015
     FM270600 30005KT P6SM BKN035
     FM271000 31005KT P6SM BKN030=

USA.gov is the U.S. government's official web portal to all federal, state and local government web resources and services.